createdAt,value
2018-02-09T00:00:11.281Z,101636.09
2018-02-09T00:02:39.160Z,101625.39
2018-02-09T00:05:06.692Z,101626.92
2018-02-09T00:07:34.249Z,101630.63
2018-02-09T00:10:01.823Z,101625.04
2018-02-09T00:12:29.343Z,101629.61
2018-02-09T00:14:56.880Z,101629.11
2018-02-09T00:17:24.538Z,101634.59
2018-02-09T00:19:52.391Z,101631.45
2018-02-09T00:22:19.959Z,101633.77
2018-02-09T00:24:47.508Z,101626.90
2018-02-09T00:27:15.094Z,101636.22
2018-02-09T00:29:43.043Z,101625.70
2018-02-09T00:32:10.569Z,101632.14
2018-02-09T00:34:38.372Z,101625.72
2018-02-09T00:37:05.921Z,101630.31
2018-02-09T00:39:33.482Z,101629.84
2018-02-09T00:42:01.062Z,101627.82
2018-02-09T00:44:28.920Z,101629.45
2018-02-09T00:46:56.500Z,101630.66
2018-02-09T00:49:24.032Z,101631.73
2018-02-09T00:51:51.573Z,101630.95
2018-02-09T00:54:19.150Z,101627.53
2018-02-09T00:56:46.766Z,101619.59
2018-02-09T00:59:14.314Z,101618.86
2018-02-09T01:01:42.260Z,101621.48
2018-02-09T01:04:09.778Z,101617.44
2018-02-09T01:06:37.338Z,101624.06
2018-02-09T01:09:04.902Z,101621.52
2018-02-09T01:11:32.455Z,101617.13
2018-02-09T01:14:00.266Z,101624.55
2018-02-09T01:16:27.844Z,101625.87
2018-02-09T01:18:55.410Z,101617.55
2018-02-09T01:21:22.940Z,101628.39
2018-02-09T01:23:50.517Z,101613.74
2018-02-09T01:26:18.079Z,101618.95
2018-02-09T01:28:45.635Z,101618.03
2018-02-09T01:31:13.192Z,101615.45
2018-02-09T01:33:40.739Z,101614.47
2018-02-09T01:36:08.350Z,101613.80
2018-02-09T01:38:35.901Z,101613.59
2018-02-09T01:41:03.498Z,101611.19
2018-02-09T01:43:31.034Z,101608.50
2018-02-09T01:45:58.602Z,101603.13
2018-02-09T01:48:26.176Z,101598.70
2018-02-09T01:50:53.774Z,101596.41
2018-02-09T01:53:21.302Z,101590.19
2018-02-09T01:55:48.862Z,101591.78
2018-02-09T01:58:16.438Z,101589.66
2018-02-09T02:00:43.978Z,101590.58
2018-02-09T02:03:11.808Z,101594.43
2018-02-09T02:05:39.369Z,101588.88
2018-02-09T02:08:06.894Z,101588.88
2018-02-09T02:10:34.453Z,101581.88
2018-02-09T02:13:02.041Z,101586.94
2018-02-09T02:15:29.598Z,101590.82
2018-02-09T02:17:57.165Z,101578.66
2018-02-09T02:20:24.705Z,101580.22
2018-02-09T02:22:52.239Z,101578.91
2018-02-09T02:25:19.845Z,101580.64
2018-02-09T02:27:47.394Z,101573.01
2018-02-09T02:30:15.267Z,101572.83
2018-02-09T02:32:42.849Z,101568.98
2018-02-09T02:35:10.417Z,101569.89
2018-02-09T02:37:37.975Z,101572.02
2018-02-09T02:40:05.541Z,101565.02
2018-02-09T02:42:35.383Z,101559.78
2018-02-09T02:45:02.922Z,101561.94
2018-02-09T02:47:30.462Z,101559.14
2018-02-09T02:49:58.036Z,101560.23
2018-02-09T02:52:25.558Z,101555.32
2018-02-09T02:54:53.092Z,101553.80
2018-02-09T02:57:20.638Z,101559.80
2018-02-09T02:59:48.442Z,101551.67
2018-02-09T03:02:16.091Z,101555.07
2018-02-09T03:04:43.873Z,101555.45
2018-02-09T03:07:11.429Z,101550.89
2018-02-09T03:09:38.977Z,101544.74
2018-02-09T03:12:06.526Z,101544.25
2018-02-09T03:14:34.421Z,101540.02
2018-02-09T03:17:01.970Z,101535.74
2018-02-09T03:19:29.510Z,101535.09
2018-02-09T03:21:57.313Z,101525.49
2018-02-09T03:24:24.848Z,101526.48
2018-02-09T03:26:52.458Z,101521.71
2018-02-09T03:29:20.306Z,101523.19
2018-02-09T03:31:48.167Z,101519.30
2018-02-09T03:34:15.962Z,101514.57
2018-02-09T03:36:43.523Z,101520.22
2018-02-09T03:39:11.116Z,101519.30
2018-02-09T03:41:38.684Z,101516.31
2018-02-09T03:44:06.237Z,101519.06
2018-02-09T03:46:33.804Z,101523.23
2018-02-09T03:49:02.846Z,101517.16
2018-02-09T03:51:30.445Z,101519.16
2018-02-09T03:53:58.008Z,101520.47
2018-02-09T03:56:25.534Z,101520.64
2018-02-09T03:58:53.395Z,101521.81
2018-02-09T04:01:20.988Z,101524.60
2018-02-09T04:03:48.565Z,101523.78
2018-02-09T04:06:16.124Z,101525.76
2018-02-09T04:08:43.701Z,101521.87
2018-02-09T04:11:11.231Z,101518.33
2018-02-09T04:13:38.862Z,101516.49
2018-02-09T04:16:06.440Z,101514.59
2018-02-09T04:18:34.202Z,101515.33
2018-02-09T04:21:01.781Z,101512.08
2018-02-09T04:23:29.330Z,101504.98
2018-02-09T04:25:56.890Z,101511.45
2018-02-09T04:28:24.443Z,101505.27
2018-02-09T04:30:52.306Z,101507.14
2018-02-09T04:33:19.869Z,101508.88
2018-02-09T04:35:47.431Z,101506.33
2018-02-09T04:38:14.969Z,101502.94
2018-02-09T04:40:42.860Z,101506.25
2018-02-09T04:43:10.386Z,101499.58
2018-02-09T04:45:37.915Z,101502.19
2018-02-09T04:48:05.502Z,101505.02
2018-02-09T04:50:33.054Z,101500.33
2018-02-09T04:53:00.651Z,101504.70
2018-02-09T04:55:28.221Z,101510.18
2018-02-09T04:57:55.795Z,101509.30
2018-02-09T05:00:23.331Z,101509.23
2018-02-09T05:02:50.930Z,101503.39
2018-02-09T05:05:18.490Z,101497.58
2018-02-09T05:07:46.076Z,101501.95
2018-02-09T05:10:13.671Z,101496.30
2018-02-09T05:12:41.227Z,101497.25
2018-02-09T05:15:08.784Z,101492.06
2018-02-09T05:17:36.346Z,101500.69
2018-02-09T05:20:03.905Z,101495.95
2018-02-09T05:22:31.514Z,101493.55
2018-02-09T05:24:59.257Z,101495.25
2018-02-09T05:27:26.808Z,101495.84
2018-02-09T05:29:54.350Z,101490.84
2018-02-09T05:32:21.913Z,101490.70
2018-02-09T05:34:49.509Z,101487.63
2018-02-09T05:37:17.095Z,101492.56
2018-02-09T05:39:44.649Z,101487.77
2018-02-09T05:42:12.579Z,101484.94
2018-02-09T05:44:40.166Z,101482.67
2018-02-09T05:47:07.751Z,101483.98
2018-02-09T05:49:35.331Z,101479.28
2018-02-09T05:52:02.926Z,101482.61
2018-02-09T05:54:30.505Z,101480.63
2018-02-09T05:56:58.091Z,101481.02
2018-02-09T05:59:25.650Z,101470.17
2018-02-09T06:01:53.171Z,101470.46
2018-02-09T06:04:20.733Z,101467.00
2018-02-09T06:06:48.278Z,101469.27
2018-02-09T06:09:15.876Z,101471.80
2018-02-09T06:11:43.478Z,101469.77
2018-02-09T06:14:11.029Z,101466.83
2018-02-09T06:16:38.613Z,101466.61
2018-02-09T06:19:06.180Z,101473.89
2018-02-09T06:21:34.066Z,101471.49
2018-02-09T06:24:01.626Z,101467.00
2018-02-09T06:26:29.487Z,101466.48
2018-02-09T06:28:57.052Z,101468.31
2018-02-09T06:31:24.597Z,101466.83
2018-02-09T06:33:52.170Z,101467.21
2018-02-09T06:36:19.709Z,101467.89
2018-02-09T06:38:47.270Z,101462.58
2018-02-09T06:41:14.817Z,101464.42
2018-02-09T06:43:42.836Z,101462.89
2018-02-09T06:46:10.710Z,101459.12
2018-02-09T06:48:38.310Z,101464.41
2018-02-09T06:51:05.910Z,101464.30
2018-02-09T06:53:33.437Z,101463.25
2018-02-09T06:56:01.002Z,101469.11
2018-02-09T06:58:28.542Z,101463.00
2018-02-09T07:00:56.107Z,101467.25
2018-02-09T07:03:23.642Z,101473.79
2018-02-09T07:05:51.251Z,101472.47
2018-02-09T07:08:18.833Z,101478.05
2018-02-09T07:10:46.772Z,101468.95
2018-02-09T07:13:14.473Z,101472.97
2018-02-09T07:15:42.225Z,101462.26
2018-02-09T07:18:09.769Z,101462.02
2018-02-09T07:20:37.781Z,101472.37
2018-02-09T07:23:05.479Z,101466.28
2018-02-09T07:25:33.112Z,101460.29
2018-02-09T07:28:00.689Z,101464.22
2018-02-09T07:30:28.255Z,101465.58
2018-02-09T07:32:55.811Z,101463.73
2018-02-09T07:35:23.446Z,101459.15
2018-02-09T07:37:51.037Z,101452.02
2018-02-09T07:40:18.983Z,101448.44
2018-02-09T07:42:46.655Z,101455.91
2018-02-09T07:45:14.232Z,101446.20
2018-02-09T07:47:41.865Z,101451.84
2018-02-09T07:50:09.453Z,101453.00
2018-02-09T07:52:36.996Z,101449.95
2018-02-09T07:55:04.577Z,101446.52
2018-02-09T07:57:32.711Z,101448.34
2018-02-09T08:00:00.547Z,101444.89
2018-02-09T08:02:28.146Z,101444.02
2018-02-09T08:04:55.699Z,101441.48
2018-02-09T08:07:23.301Z,101445.05
2018-02-09T08:09:50.910Z,101445.14
2018-02-09T08:12:18.542Z,101435.13
2018-02-09T08:14:46.134Z,101431.28
2018-02-09T08:17:13.694Z,101442.36
2018-02-09T08:19:41.279Z,101444.70
2018-02-09T08:22:08.904Z,101439.84
2018-02-09T08:24:36.704Z,101442.13
2018-02-09T08:27:04.343Z,101437.45
2018-02-09T08:29:31.967Z,101443.86
2018-02-09T08:31:59.491Z,101443.95
2018-02-09T08:34:27.099Z,101441.91
2018-02-09T08:36:54.699Z,101439.70
2018-02-09T08:39:22.262Z,101443.33
2018-02-09T08:41:49.874Z,101441.30
2018-02-09T08:44:17.410Z,101428.36
2018-02-09T08:46:45.230Z,101428.81
2018-02-09T08:49:13.292Z,101429.09
2018-02-09T08:51:40.970Z,101423.77
2018-02-09T08:54:08.593Z,101421.02
2018-02-09T08:56:36.426Z,101421.05
2018-02-09T08:59:03.976Z,101415.25
2018-02-09T09:01:31.643Z,101416.75
2018-02-09T09:03:59.231Z,101420.67
2018-02-09T09:06:26.868Z,101419.92
2018-02-09T09:08:54.621Z,101419.45
2018-02-09T09:11:22.253Z,101422.02
2018-02-09T09:13:49.815Z,101417.66
2018-02-09T09:16:17.373Z,101415.59
2018-02-09T09:18:45.104Z,101410.64
2018-02-09T09:21:12.752Z,101412.80
2018-02-09T09:23:40.566Z,101409.56
2018-02-09T09:26:08.191Z,101407.44
2018-02-09T09:28:35.798Z,101398.34
2018-02-09T09:31:03.366Z,101399.30
2018-02-09T09:33:30.928Z,101401.92
2018-02-09T09:35:58.534Z,101402.72
2018-02-09T09:38:26.121Z,101401.57
2018-02-09T09:40:53.752Z,101401.22
2018-02-09T09:43:21.359Z,101394.42
2018-02-09T09:45:48.976Z,101386.16
2018-02-09T09:48:16.506Z,101387.01
2018-02-09T09:50:44.055Z,101386.98
2018-02-09T09:53:11.815Z,101383.39
2018-02-09T09:55:39.342Z,101379.76
2018-02-09T09:58:06.921Z,101382.71
2018-02-09T10:00:34.487Z,101384.47
2018-02-09T10:03:02.329Z,101383.16
2018-02-09T10:05:30.173Z,101377.27
2018-02-09T10:07:57.740Z,101374.81
2018-02-09T10:10:25.316Z,101375.44
2018-02-09T10:12:52.904Z,101374.52
2018-02-09T10:15:20.447Z,101373.99
2018-02-09T10:17:47.989Z,101371.14
2018-02-09T10:20:15.627Z,101369.17
2018-02-09T10:22:43.210Z,101368.80
2018-02-09T10:25:10.807Z,101369.59
2018-02-09T10:27:38.407Z,101363.55
2018-02-09T10:30:05.984Z,101359.88
2018-02-09T10:32:33.654Z,101360.77
2018-02-09T10:35:02.266Z,101358.14
2018-02-09T10:37:29.864Z,101364.33
2018-02-09T10:39:57.450Z,101359.03
2018-02-09T10:42:25.046Z,101355.04
2018-02-09T10:44:52.691Z,101354.57
2018-02-09T10:47:20.236Z,101356.57
2018-02-09T10:49:48.167Z,101353.48
2018-02-09T10:52:17.863Z,101348.78
2018-02-09T10:54:45.918Z,101354.32
2018-02-09T10:57:13.572Z,101347.59
2018-02-09T10:59:41.125Z,101348.63
2018-02-09T11:02:08.713Z,101343.77
2018-02-09T11:04:36.251Z,101337.92
2018-02-09T11:07:03.800Z,101343.09
2018-02-09T11:09:31.347Z,101346.83
2018-02-09T11:15:02.922Z,101343.37
2018-02-09T11:17:30.516Z,101346.45
2018-02-09T11:19:58.078Z,101336.51
2018-02-09T11:22:25.642Z,101334.91
2018-02-09T11:24:53.198Z,101333.56
2018-02-09T11:27:21.041Z,101331.20
2018-02-09T11:29:48.688Z,101324.11
2018-02-09T11:32:16.268Z,101332.20
2018-02-09T11:34:43.806Z,101322.66
2018-02-09T11:37:11.383Z,101320.89
2018-02-09T11:39:38.971Z,101323.27
2018-02-09T11:42:06.546Z,101321.09
2018-02-09T11:44:34.086Z,101316.38
2018-02-09T11:47:01.718Z,101317.83
2018-02-09T11:49:29.290Z,101319.73
2018-02-09T11:51:56.881Z,101311.41
2018-02-09T11:54:24.441Z,101310.12
2018-02-09T11:56:51.981Z,101295.34
2018-02-09T11:59:19.554Z,101302.19
2018-02-09T12:01:47.100Z,101299.44
2018-02-09T12:04:14.662Z,101304.19
2018-02-09T12:06:42.225Z,101302.13
2018-02-09T12:09:09.789Z,101296.15
2018-02-09T12:11:37.346Z,101304.31
2018-02-09T12:14:04.922Z,101299.67
2018-02-09T12:16:32.492Z,101297.19
2018-02-09T12:19:00.065Z,101290.02
2018-02-09T12:21:27.892Z,101295.05
2018-02-09T12:23:55.488Z,101291.78
2018-02-09T12:26:23.023Z,101277.63
2018-02-09T12:28:50.596Z,101284.25
2018-02-09T12:31:18.461Z,101274.45
2018-02-09T12:33:46.146Z,101271.92
2018-02-09T12:36:13.685Z,101271.36
2018-02-09T12:38:41.258Z,101271.66
2018-02-09T12:41:09.101Z,101266.33
2018-02-09T12:43:36.650Z,101259.84
2018-02-09T12:46:04.428Z,101259.64
2018-02-09T12:48:32.001Z,101254.19
2018-02-09T12:50:59.532Z,101248.80
2018-02-09T12:53:27.082Z,101248.02
2018-02-09T12:55:54.675Z,101242.69
2018-02-09T12:58:22.218Z,101237.05
2018-02-09T13:00:50.282Z,101240.80
2018-02-09T13:03:17.913Z,101233.25
2018-02-09T13:05:45.670Z,101227.08
2018-02-09T13:08:13.614Z,101227.34
2018-02-09T13:10:41.263Z,101217.33
2018-02-09T13:13:11.667Z,101218.70
2018-02-09T13:15:39.200Z,101215.97
2018-02-09T13:18:07.018Z,101214.34
2018-02-09T13:20:34.544Z,101211.59
2018-02-09T13:23:14.226Z,101211.01
2018-02-09T13:25:41.743Z,101202.53
2018-02-09T13:28:09.302Z,101202.21
2018-02-09T13:30:37.111Z,101200.05
2018-02-09T13:33:16.471Z,101197.61
2018-02-09T13:35:44.047Z,101206.89
2018-02-09T13:38:11.586Z,101200.20
2018-02-09T13:40:39.154Z,101197.09
2018-02-09T13:43:06.764Z,101194.36
2018-02-09T13:45:34.319Z,101193.19
2018-02-09T13:48:01.850Z,101189.91
2018-02-09T13:50:29.404Z,101194.59
2018-02-09T13:52:56.928Z,101191.53
2018-02-09T13:55:24.469Z,101188.76
2018-02-09T13:57:51.998Z,101182.89
2018-02-09T14:00:19.930Z,101180.73
2018-02-09T14:02:47.475Z,101179.84
2018-02-09T14:05:15.023Z,101175.88
2018-02-09T14:07:42.904Z,101175.69
2018-02-09T14:10:10.440Z,101182.95
2018-02-09T14:12:37.983Z,101177.20
2018-02-09T14:15:05.516Z,101183.09
2018-02-09T14:17:33.037Z,101174.26
2018-02-09T14:20:00.608Z,101178.58
2018-02-09T14:22:28.142Z,101171.84
2018-02-09T14:24:55.678Z,101166.94
2018-02-09T14:27:23.970Z,101173.31
2018-02-09T14:29:51.540Z,101167.36
2018-02-09T14:32:19.095Z,101167.84
2018-02-09T14:34:46.642Z,101159.45
2018-02-09T14:37:14.213Z,101162.14
2018-02-09T14:39:41.790Z,101163.47
2018-02-09T14:42:09.318Z,101165.68
2018-02-09T14:44:36.867Z,101159.63
2018-02-09T14:47:04.453Z,101160.10
2018-02-09T14:49:32.371Z,101157.94
2018-02-09T14:51:59.900Z,101160.58
2018-02-09T14:54:27.787Z,101167.91
2018-02-09T14:56:55.334Z,101158.47
2018-02-09T14:59:23.117Z,101159.31
2018-02-09T15:01:50.706Z,101166.13
2018-02-09T15:04:18.544Z,101167.64
2018-02-09T15:06:46.135Z,101168.22
2018-02-09T15:09:13.755Z,101162.64
2018-02-09T15:11:41.295Z,101165.53
2018-02-09T15:14:08.824Z,101163.84
2018-02-09T15:16:36.654Z,101159.27
2018-02-09T15:19:04.198Z,101167.28
2018-02-09T15:21:31.757Z,101161.78
2018-02-09T15:23:59.298Z,101157.98
2018-02-09T15:26:26.862Z,101154.63
2018-02-09T15:28:54.471Z,101153.73
2018-02-09T15:31:22.333Z,101156.58
2018-02-09T15:33:49.923Z,101156.72
2018-02-09T15:36:17.513Z,101154.00
2018-02-09T15:38:45.087Z,101158.89
2018-02-09T15:41:12.712Z,101157.24
2018-02-09T15:43:40.249Z,101153.88
2018-02-09T15:46:07.793Z,101154.39
2018-02-09T15:48:35.403Z,101155.55
2018-02-09T15:51:02.957Z,101153.95
2018-02-09T15:53:30.508Z,101157.95
2018-02-09T15:55:58.059Z,101151.15
2018-02-09T15:58:25.606Z,101147.73
2018-02-09T16:00:53.469Z,101151.56
2018-02-09T16:03:21.058Z,101152.66
2018-02-09T16:05:48.892Z,101147.28
2018-02-09T16:08:16.446Z,101144.19
2018-02-09T16:10:43.975Z,101148.42
2018-02-09T16:13:11.520Z,101149.74
2018-02-09T16:15:39.076Z,101151.04
2018-02-09T16:18:06.674Z,101154.20
2018-02-09T16:20:34.242Z,101154.30
2018-02-09T16:23:01.766Z,101152.93
2018-02-09T16:25:29.300Z,101154.12
2018-02-09T16:27:56.859Z,101154.30
2018-02-09T16:30:24.715Z,101146.91
2018-02-09T16:32:52.303Z,101149.94
2018-02-09T16:35:20.134Z,101153.14
2018-02-09T16:37:47.905Z,101158.22
2018-02-09T16:40:15.492Z,101155.30
2018-02-09T16:42:43.330Z,101159.83
2018-02-09T16:45:10.881Z,101162.77
2018-02-09T16:47:38.477Z,101165.87
2018-02-09T16:50:06.025Z,101169.75
2018-02-09T16:52:33.587Z,101166.84
2018-02-09T16:55:01.161Z,101166.14
2018-02-09T16:57:28.700Z,101164.91
2018-02-09T16:59:56.538Z,101171.15
2018-02-09T17:02:24.366Z,101165.09
2018-02-09T17:04:52.069Z,101175.20
2018-02-09T17:07:19.964Z,101172.64
2018-02-09T17:09:48.373Z,101181.05
2018-02-09T17:12:16.353Z,101178.15
2018-02-09T17:14:43.910Z,101184.67
2018-02-09T17:17:12.201Z,101177.10
2018-02-09T17:19:40.598Z,101184.53
2018-02-09T17:22:08.195Z,101178.38
2018-02-09T17:24:35.770Z,101180.22
2018-02-09T17:27:03.358Z,101185.58
2018-02-09T17:29:30.878Z,101184.82
2018-02-09T17:31:58.440Z,101184.25
2018-02-09T17:34:25.983Z,101189.99
2018-02-09T17:36:53.571Z,101189.27
2018-02-09T17:39:21.147Z,101184.95
2018-02-09T17:41:48.809Z,101188.73
2018-02-09T17:44:16.344Z,101187.04
2018-02-09T17:46:43.884Z,101193.61
2018-02-09T17:49:11.557Z,101198.11
2018-02-09T17:51:39.126Z,101200.93
2018-02-09T17:54:06.666Z,101202.61
2018-02-09T17:56:34.224Z,101193.98
2018-02-09T17:59:01.786Z,101204.67
2018-02-09T18:01:29.323Z,101206.09
2018-02-09T18:03:56.884Z,101207.55
2018-02-09T18:06:24.415Z,101201.09
2018-02-09T18:08:52.054Z,101200.72
2018-02-09T18:11:19.588Z,101205.77
2018-02-09T18:13:47.125Z,101205.30
2018-02-09T18:16:14.727Z,101206.81
2018-02-09T18:18:42.249Z,101204.66
2018-02-09T18:21:10.064Z,101209.78
2018-02-09T18:23:37.636Z,101208.52
2018-02-09T18:26:05.176Z,101213.20
2018-02-09T18:28:32.759Z,101216.81
2018-02-09T18:31:00.305Z,101211.83
2018-02-09T18:33:27.850Z,101211.97
2018-02-09T18:35:55.442Z,101218.91
2018-02-09T18:38:23.013Z,101222.32
2018-02-09T18:40:50.558Z,101216.17
2018-02-09T18:43:18.173Z,101220.67
2018-02-09T18:45:45.702Z,101217.85
2018-02-09T18:48:13.363Z,101215.22
2018-02-09T18:50:40.920Z,101214.89
2018-02-09T18:53:08.868Z,101212.27
2018-02-09T18:55:36.462Z,101217.65
2018-02-09T18:58:04.006Z,101214.06
2018-02-09T19:00:31.525Z,101217.94
2018-02-09T19:02:59.413Z,101217.22
2018-02-09T19:05:26.987Z,101223.09
2018-02-09T19:07:54.554Z,101213.93
2018-02-09T19:10:22.399Z,101218.26
2018-02-09T19:12:50.267Z,101217.75
2018-02-09T19:15:17.806Z,101217.28
2018-02-09T19:17:45.433Z,101215.20
2018-02-09T19:20:13.003Z,101215.31
2018-02-09T19:22:40.823Z,101216.63
2018-02-09T19:25:08.362Z,101214.84
2018-02-09T19:27:36.244Z,101218.67
2018-02-09T19:30:03.821Z,101219.80
2018-02-09T19:32:31.380Z,101217.92
2018-02-09T19:34:58.930Z,101213.37
2018-02-09T19:37:26.525Z,101214.84
2018-02-09T19:39:54.363Z,101215.26
2018-02-09T19:42:21.935Z,101221.41
2018-02-09T19:44:49.552Z,101219.16
2018-02-09T19:47:17.140Z,101218.25
2018-02-09T19:49:44.683Z,101217.50
2018-02-09T19:52:12.235Z,101218.16
2018-02-09T19:54:39.901Z,101219.20
2018-02-09T19:57:07.439Z,101219.00
2018-02-09T19:59:35.050Z,101224.09
2018-02-09T20:02:02.627Z,101222.67
2018-02-09T20:04:30.169Z,101221.53
2018-02-09T20:06:57.772Z,101216.37
2018-02-09T20:09:25.391Z,101216.56
2018-02-09T20:11:52.931Z,101216.51
2018-02-09T20:14:20.582Z,101213.64
2018-02-09T20:16:48.125Z,101208.91
2018-02-09T20:19:15.707Z,101213.22
2018-02-09T20:21:43.317Z,101217.41
2018-02-09T20:24:10.995Z,101215.41
2018-02-09T20:26:38.834Z,101220.08
2018-02-09T20:29:06.381Z,101218.01
2018-02-09T20:31:33.982Z,101218.06
2018-02-09T20:34:01.585Z,101219.56
2018-02-09T20:36:29.232Z,101217.00
2018-02-09T20:38:56.864Z,101221.78
2018-02-09T20:41:24.429Z,101224.27
2018-02-09T20:43:51.983Z,101224.31
2018-02-09T20:46:19.610Z,101222.54
2018-02-09T20:48:47.141Z,101227.42
2018-02-09T20:51:14.967Z,101226.86
2018-02-09T20:53:42.832Z,101229.36
2018-02-09T20:56:10.390Z,101222.05
2018-02-09T20:58:38.260Z,101221.27
2018-02-09T21:01:05.917Z,101219.63
2018-02-09T21:03:33.477Z,101218.21
2018-02-09T21:06:01.066Z,101217.42
2018-02-09T21:08:28.633Z,101220.48
2018-02-09T21:10:56.463Z,101225.42
2018-02-09T21:13:24.327Z,101218.70
2018-02-09T21:15:51.957Z,101217.69
2018-02-09T21:18:19.767Z,101220.58
2018-02-09T21:20:47.306Z,101224.34
2018-02-09T21:23:14.929Z,101222.60
2018-02-09T21:25:42.576Z,101215.47
2018-02-09T21:28:10.141Z,101219.55
2018-02-09T21:30:38.091Z,101214.66
2018-02-09T21:33:05.635Z,101214.85
2018-02-09T21:35:33.215Z,101219.84
2018-02-09T21:38:00.734Z,101221.86
2018-02-09T21:40:28.268Z,101216.61
2018-02-09T21:42:55.843Z,101226.75
2018-02-09T21:45:23.385Z,101226.70
2018-02-09T21:47:51.107Z,101226.75
2018-02-09T21:50:18.662Z,101225.58
2018-02-09T21:52:46.209Z,101228.38
2018-02-09T21:55:13.864Z,101225.39
2018-02-09T21:57:41.418Z,101227.31
2018-02-09T22:00:08.952Z,101222.81
2018-02-09T22:02:36.540Z,101228.95
2018-02-09T22:05:04.086Z,101225.75
2018-02-09T22:07:31.654Z,101218.38
2018-02-09T22:09:59.323Z,101223.79
2018-02-09T22:12:26.943Z,101230.64
2018-02-09T22:14:54.542Z,101232.67
2018-02-09T22:17:22.415Z,101230.13
2018-02-09T22:19:49.960Z,101240.58
2018-02-09T22:22:17.573Z,101241.20
2018-02-09T22:24:45.100Z,101241.05
2018-02-09T22:27:12.631Z,101230.37
2018-02-09T22:29:40.228Z,101228.58
2018-02-09T22:32:07.769Z,101234.68
2018-02-09T22:34:35.343Z,101231.43
2018-02-09T22:37:02.875Z,101232.14
2018-02-09T22:39:30.432Z,101236.64
2018-02-09T22:41:58.251Z,101231.75
2018-02-09T22:44:25.799Z,101227.25
2018-02-09T22:46:53.346Z,101233.95
2018-02-09T22:49:20.878Z,101232.56
2018-02-09T22:51:48.451Z,101234.15
2018-02-09T22:54:16.026Z,101230.35
2018-02-09T22:56:43.601Z,101232.41
2018-02-09T22:59:11.186Z,101236.93
2018-02-09T23:01:38.710Z,101232.14
2018-02-09T23:04:06.254Z,101237.58
2018-02-09T23:06:33.836Z,101232.42
2018-02-09T23:09:01.834Z,101238.80
2018-02-09T23:11:29.413Z,101232.70
2018-02-09T23:13:56.980Z,101231.38
2018-02-09T23:16:24.529Z,101231.20
2018-02-09T23:18:52.078Z,101229.52
2018-02-09T23:21:19.585Z,101227.31
2018-02-09T23:23:47.111Z,101226.37
2018-02-09T23:26:14.670Z,101226.22
2018-02-09T23:28:42.374Z,101222.38
2018-02-09T23:31:09.967Z,101211.81
2018-02-09T23:33:37.527Z,101212.20
2018-02-09T23:36:05.106Z,101209.77
2018-02-09T23:38:32.971Z,101210.19
2018-02-09T23:41:00.510Z,101216.51
2018-02-09T23:43:28.037Z,101216.14
2018-02-09T23:45:55.590Z,101221.13
2018-02-09T23:48:23.141Z,101216.51
2018-02-09T23:50:50.699Z,101216.51
2018-02-09T23:53:18.252Z,101222.48
2018-02-09T23:55:45.781Z,101224.97
2018-02-09T23:58:13.383Z,101224.80
